Time;durP1;ratioP1;P1;durP2;ratioP2;P2;SDS_P1;SDS_P2;PMS_P1;PMS_P2;Temp;Humidity;BMP_temperature;BMP_pressure;BME280_temperature;BME280_humidity;BME280_pressure;Samples;Min_cycle;Max_cycle;Signal;HPM_P1;HPM_P2
2023/02/18 00:01:32;;;;;;;3.35;3.25;;;10.90;99.90;;;;;;5078912;28;20675;-81
2023/02/18 00:04:00;;;;;;;5.20;3.65;;;10.90;99.90;;;;;;5078824;28;20210;-81
2023/02/18 00:06:30;;;;;;;1.75;1.48;;;11.00;99.90;;;;;;5079003;28;20257;-81
2023/02/18 00:09:00;;;;;;;1.80;1.70;;;10.90;99.90;;;;;;5079647;28;20198;-81
2023/02/18 00:11:30;;;;;;;11.05;5.85;;;10.90;99.90;;;;;;5080972;28;20452;-81
2023/02/18 00:13:59;;;;;;;0.50;0.40;;;10.90;99.90;;;;;;5082571;28;20226;-79
2023/02/18 00:16:26;;;;;;;0.60;0.57;;;10.90;99.90;;;;;;5082216;28;20472;-81
2023/02/18 00:18:55;;;;;;;2.70;0.85;;;10.90;99.90;;;;;;5083460;28;20198;-80
2023/02/18 00:21:22;;;;;;;6.13;5.53;;;10.90;99.90;;;;;;5082981;28;20243;-81
2023/02/18 00:23:49;;;;;;;3.33;2.72;;;10.90;99.90;;;;;;5082919;28;20198;-82
2023/02/18 00:26:17;;;;;;;3.10;2.27;;;10.90;99.90;;;;;;5082610;28;20257;-81
2023/02/18 00:28:47;;;;;;;0.75;0.75;;;10.90;99.90;;;;;;5082259;28;20444;-81
2023/02/18 00:31:18;;;;;;;13.90;5.90;;;10.90;99.90;;;;;;5081842;28;20202;-80
2023/02/18 00:33:45;;;;;;;0.50;0.40;;;10.90;99.90;;;;;;5083096;28;20531;-82
2023/02/18 00:36:14;;;;;;;2.08;1.88;;;10.90;99.90;;;;;;5081561;28;20214;-79
2023/02/18 00:38:44;;;;;;;5.30;4.78;;;10.90;99.90;;;;;;5082659;28;20197;-82
2023/02/18 00:41:11;;;;;;;26.43;9.97;;;10.90;99.90;;;;;;5081998;28;20209;-81
2023/02/18 00:43:38;;;;;;;8.07;3.75;;;10.90;99.90;;;;;;5082038;28;20458;-81
2023/02/18 00:46:06;;;;;;;3.70;3.37;;;10.90;99.90;;;;;;5081379;28;20193;-81
2023/02/18 00:48:33;;;;;;;4.00;3.07;;;10.90;99.90;;;;;;5082448;28;20460;-79
2023/02/18 00:51:01;;;;;;;7.70;4.00;;;10.90;99.90;;;;;;5081425;28;20436;-81
2023/02/18 00:53:28;;;;;;;1.80;1.33;;;10.90;99.90;;;;;;5082702;28;20448;-79
2023/02/18 00:55:55;;;;;;;9.30;5.23;;;10.90;99.90;;;;;;5083328;28;20543;-80
2023/02/18 00:58:21;;;;;;;1.47;1.40;;;10.90;99.90;;;;;;5081957;28;20460;-80
2023/02/18 01:00:49;;;;;;;1.33;1.33;;;10.90;99.90;;;;;;5082060;28;20454;-81
2023/02/18 01:03:17;;;;;;;6.68;2.40;;;10.90;99.90;;;;;;5081545;28;20436;-81
2023/02/18 01:05:44;;;;;;;3.93;3.57;;;10.90;99.90;;;;;;5081975;28;20204;-81
2023/02/18 01:08:11;;;;;;;8.23;4.87;;;10.90;99.90;;;;;;5081931;28;20464;-81
2023/02/18 01:10:43;;;;;;;2.00;1.67;;;10.90;99.90;;;;;;5081910;28;20444;-81
2023/02/18 01:13:10;;;;;;;4.03;3.28;;;10.90;99.90;;;;;;5081629;28;20206;-81
2023/02/18 01:15:37;;;;;;;8.32;4.43;;;10.90;99.90;;;;;;5081889;28;20210;-80
2023/02/18 01:18:06;;;;;;;12.75;6.22;;;10.90;99.90;;;;;;5081596;28;20285;-82
2023/02/18 01:20:35;;;;;;;16.63;7.03;;;10.90;99.90;;;;;;5082285;28;20198;-82
2023/02/18 01:23:02;;;;;;;1.50;1.13;;;10.90;99.90;;;;;;5080427;28;20265;-82
2023/02/18 01:25:29;;;;;;;5.97;4.75;;;10.90;99.90;;;;;;5081467;28;20194;-82
2023/02/18 01:27:56;;;;;;;10.95;5.25;;;10.90;99.90;;;;;;5081897;28;20236;-82
2023/02/18 01:30:23;;;;;;;2.10;2.00;;;10.90;99.90;;;;;;5080897;28;20198;-80
2023/02/18 01:32:49;;;;;;;10.17;3.33;;;10.90;99.90;;;;;;5080918;28;20289;-80
2023/02/18 01:35:18;;;;;;;0.93;0.93;;;10.90;99.90;;;;;;5081114;28;20450;-80
2023/02/18 01:37:47;;;;;;;3.25;3.00;;;10.90;99.90;;;;;;5081600;28;20221;-81
2023/02/18 01:40:17;;;;;;;9.98;4.90;;;10.90;99.90;;;;;;5081016;28;20208;-81
2023/02/18 01:42:44;;;;;;;15.68;7.85;;;10.90;99.90;;;;;;5081240;28;20656;-81
2023/02/18 01:45:50;;;;;;;7.63;4.25;;;10.90;99.90;;;;;;5080594;28;20205;-81
2023/02/18 01:48:21;;;;;;;4.65;3.60;;;10.80;99.90;;;;;;5081111;28;20221;-79
2023/02/18 01:50:50;;;;;;;8.40;4.07;;;10.80;99.90;;;;;;5081441;28;20201;-80
2023/02/18 01:53:25;;;;;;;1.70;1.35;;;10.80;99.90;;;;;;5081017;28;20201;-80
2023/02/18 01:55:52;;;;;;;9.30;6.80;;;10.80;99.90;;;;;;5081333;28;20217;-80
2023/02/18 01:58:21;;;;;;;4.22;3.78;;;10.80;99.90;;;;;;5080945;28;20474;-80
2023/02/18 02:00:47;;;;;;;2.72;1.75;;;10.80;99.90;;;;;;5081156;28;20198;-81
2023/02/18 02:03:14;;;;;;;7.82;4.88;;;10.80;99.90;;;;;;5081235;28;20202;-80
2023/02/18 02:05:41;;;;;;;2.15;1.85;;;10.90;99.90;;;;;;5080953;28;20202;-81
2023/02/18 02:08:08;;;;;;;6.38;4.13;;;10.90;99.90;;;;;;5080630;28;20228;-80
2023/02/18 02:10:49;;;;;;;15.02;5.82;;;10.90;99.90;;;;;;5080852;28;20194;-80
2023/02/18 02:13:25;;;;;;;1.30;1.20;;;10.90;99.90;;;;;;5080897;28;20193;-80
2023/02/18 02:15:58;;;;;;;9.88;4.50;;;10.90;99.90;;;;;;5079979;28;20225;-79
2023/02/18 02:18:35;;;;;;;7.28;5.57;;;10.90;99.90;;;;;;5080398;28;20603;-79
2023/02/18 02:21:42;;;;;;;3.53;1.45;;;10.90;99.90;;;;;;5080884;28;20213;-79
2023/02/18 02:24:41;;;;;;;4.60;4.20;;;10.90;99.90;;;;;;5080194;28;20198;-81
2023/02/18 02:27:19;;;;;;;7.03;4.55;;;10.90;99.90;;;;;;5073453;28;20467;-78
2023/02/18 02:30:40;;;;;;;3.03;2.83;;;10.90;99.90;;;;;;5079930;28;20197;-80
2023/02/18 02:33:41;;;;;;;2.08;1.98;;;10.90;99.90;;;;;;5063659;28;20452;-80
2023/02/18 02:36:14;;;;;;;5.10;2.90;;;10.90;99.90;;;;;;5078895;28;20587;-79
2023/02/18 02:38:54;;;;;;;3.63;1.57;;;10.90;99.90;;;;;;5079515;28;20675;-80
2023/02/18 02:41:31;;;;;;;2.17;1.67;;;10.90;99.90;;;;;;5080020;28;20513;-77
2023/02/18 02:44:06;;;;;;;4.78;2.38;;;10.90;99.90;;;;;;5079607;28;20694;-80
2023/02/18 02:46:39;;;;;;;5.03;2.93;;;10.90;99.90;;;;;;5072663;28;20221;-79
2023/02/18 02:49:13;;;;;;;1.20;1.10;;;10.90;99.90;;;;;;5081585;28;20461;-79
2023/02/18 02:51:47;;;;;;;1.53;1.30;;;10.90;99.90;;;;;;5081669;28;20492;-80
2023/02/18 02:54:16;;;;;;;1.23;1.13;;;10.90;99.90;;;;;;5081413;28;20488;-79
2023/02/18 02:56:43;;;;;;;1.30;1.20;;;10.90;99.90;;;;;;5080845;28;20547;-78
2023/02/18 02:59:16;;;;;;;3.97;3.10;;;10.90;99.90;;;;;;5081333;28;20611;-80
2023/02/18 03:01:55;;;;;;;2.60;2.07;;;10.90;99.90;;;;;;5081332;28;20204;-80
2023/02/18 03:04:47;;;;;;;3.20;3.00;;;10.80;99.90;;;;;;5081177;28;20523;-79
2023/02/18 03:07:29;;;;;;;1.35;1.13;;;10.80;99.90;;;;;;5081621;28;20236;-77
2023/02/18 03:10:13;;;;;;;3.47;2.03;;;10.80;99.90;;;;;;5081004;28;20201;-80
2023/02/18 03:12:48;;;;;;;6.30;3.97;;;10.80;99.90;;;;;;5074250;28;20467;-80
2023/02/18 03:15:22;;;;;;;2.43;1.90;;;10.70;99.90;;;;;;5079803;28;20568;-79
2023/02/18 03:17:55;;;;;;;2.78;2.53;;;10.70;99.90;;;;;;5079820;28;20476;-79
2023/02/18 03:20:26;;;;;;;3.58;2.75;;;10.70;99.90;;;;;;5080031;28;20278;-80
2023/02/18 03:22:57;;;;;;;8.82;4.85;;;10.70;99.90;;;;;;5079360;28;20259;-80
2023/02/18 03:25:24;;;;;;;7.28;3.88;;;10.70;99.90;;;;;;5080122;28;20198;-80
2023/02/18 03:27:55;;;;;;;5.90;4.55;;;10.60;99.90;;;;;;5080361;28;20712;-81
2023/02/18 03:30:26;;;;;;;16.70;5.38;;;10.60;99.90;;;;;;5080605;28;20206;-80
2023/02/18 03:32:57;;;;;;;8.70;5.03;;;10.50;99.90;;;;;;5080995;28;20204;-81
2023/02/18 03:35:26;;;;;;;8.10;5.47;;;10.50;99.90;;;;;;5080822;28;20190;-80
2023/02/18 03:37:59;;;;;;;3.28;1.85;;;10.50;99.90;;;;;;5080906;28;20209;-81
2023/02/18 03:40:27;;;;;;;13.30;9.63;;;10.40;99.90;;;;;;5080482;28;20189;-81
2023/02/18 03:42:54;;;;;;;16.42;7.85;;;10.40;99.90;;;;;;5080766;28;20439;-81
2023/02/18 03:45:21;;;;;;;7.50;2.15;;;10.40;99.90;;;;;;5080957;28;20205;-81
2023/02/18 03:47:47;;;;;;;10.23;7.22;;;10.40;99.90;;;;;;5084738;28;20231;-81
2023/02/18 03:50:14;;;;;;;8.35;4.10;;;10.40;99.90;;;;;;5085035;28;20233;-80
2023/02/18 03:52:41;;;;;;;15.50;7.47;;;10.50;99.90;;;;;;5084558;28;20281;-81
2023/02/18 03:55:10;;;;;;;3.63;3.00;;;10.50;99.90;;;;;;5083730;28;20200;-79
2023/02/18 03:57:37;;;;;;;1.83;0.90;;;10.50;99.90;;;;;;5082856;28;20210;-81
2023/02/18 04:00:06;;;;;;;9.75;4.47;;;10.50;99.90;;;;;;5082735;28;20277;-81
2023/02/18 04:02:32;;;;;;;8.10;7.40;;;10.50;99.90;;;;;;5082029;28;20194;-81
2023/02/18 04:04:59;;;;;;;7.70;3.58;;;10.50;99.90;;;;;;5081859;28;20297;-81
2023/02/18 04:07:26;;;;;;;3.65;3.13;;;10.60;99.90;;;;;;5082156;28;20214;-81
2023/02/18 04:09:53;;;;;;;4.95;4.53;;;10.60;99.90;;;;;;5083043;28;20194;-81
2023/02/18 04:12:21;;;;;;;8.68;4.80;;;10.60;99.90;;;;;;5083240;28;20190;-81
2023/02/18 04:14:48;;;;;;;12.98;4.53;;;10.60;99.90;;;;;;5082552;28;20262;-81
2023/02/18 04:17:15;;;;;;;5.00;3.58;;;10.60;99.90;;;;;;5081882;28;20720;-79
2023/02/18 04:19:41;;;;;;;9.52;5.25;;;10.60;99.90;;;;;;5082627;28;20204;-81
2023/02/18 04:22:08;;;;;;;13.27;9.02;;;10.50;99.90;;;;;;5082509;28;20190;-81
2023/02/18 04:24:35;;;;;;;9.63;4.78;;;10.50;99.90;;;;;;5073819;28;20194;-81
2023/02/18 04:27:02;;;;;;;7.95;5.40;;;10.50;99.90;;;;;;5082350;28;20221;-80
2023/02/18 04:29:30;;;;;;;4.47;4.13;;;10.50;99.90;;;;;;5082824;28;20198;-81
2023/02/18 04:31:57;;;;;;;4.38;3.35;;;10.60;99.90;;;;;;5083544;28;20198;-81
2023/02/18 04:34:24;;;;;;;2.45;2.30;;;10.50;99.90;;;;;;5082978;28;20281;-81
2023/02/18 04:36:51;;;;;;;5.25;4.72;;;10.60;99.90;;;;;;5082687;28;20778;-81
2023/02/18 04:39:17;;;;;;;7.03;3.45;;;10.60;99.90;;;;;;5082991;28;20190;-79
2023/02/18 04:41:44;;;;;;;9.70;4.78;;;10.50;99.90;;;;;;5083323;28;20280;-81
2023/02/18 04:44:11;;;;;;;6.28;2.35;;;10.50;99.90;;;;;;5083128;28;20741;-80
2023/02/18 04:46:39;;;;;;;5.85;3.08;;;10.50;99.90;;;;;;5082906;28;20210;-80
2023/02/18 04:49:06;;;;;;;8.40;3.15;;;10.50;99.90;;;;;;5083150;28;20288;-80
2023/02/18 04:51:33;;;;;;;9.45;4.35;;;10.40;99.90;;;;;;5081779;28;20261;-81
2023/02/18 04:53:59;;;;;;;5.88;4.63;;;10.40;99.90;;;;;;5082630;28;20200;-79
2023/02/18 04:56:26;;;;;;;6.13;5.55;;;10.30;99.90;;;;;;5082233;28;20202;-80
2023/02/18 04:58:53;;;;;;;10.15;5.55;;;10.30;99.90;;;;;;5082692;28;20201;-80
2023/02/18 05:01:20;;;;;;;8.93;4.93;;;10.20;99.90;;;;;;5082334;28;20561;-80
2023/02/18 05:03:48;;;;;;;4.18;3.50;;;10.20;99.90;;;;;;5082079;28;20204;-80
2023/02/18 05:06:15;;;;;;;4.22;3.88;;;10.20;99.90;;;;;;5082443;28;20198;-80
2023/02/18 05:08:41;;;;;;;4.10;3.80;;;10.20;99.90;;;;;;5082910;28;20601;-81
2023/02/18 05:11:09;;;;;;;11.77;3.67;;;10.20;99.90;;;;;;5083307;28;20198;-81
2023/02/18 05:13:35;;;;;;;3.63;1.85;;;10.10;99.90;;;;;;5082681;28;20257;-81
2023/02/18 05:16:02;;;;;;;1.95;1.75;;;10.10;99.90;;;;;;5081790;28;20229;-82
2023/02/18 05:18:29;;;;;;;4.57;2.05;;;10.10;99.90;;;;;;5083024;28;20222;-81
2023/02/18 05:20:57;;;;;;;2.25;2.10;;;10.10;99.90;;;;;;5083165;28;20204;-81
2023/02/18 05:23:24;;;;;;;4.20;2.33;;;10.10;99.90;;;;;;5083002;28;20621;-79
2023/02/18 05:25:51;;;;;;;3.72;2.45;;;10.10;99.90;;;;;;5082905;28;20297;-79
2023/02/18 05:28:18;;;;;;;2.72;1.70;;;10.00;99.90;;;;;;5076444;28;20225;-79
2023/02/18 05:30:45;;;;;;;1.65;1.30;;;10.00;99.90;;;;;;5084454;28;20220;-81
2023/02/18 05:33:12;;;;;;;5.07;3.38;;;10.00;99.90;;;;;;5084708;28;20198;-81
2023/02/18 05:35:38;;;;;;;2.40;2.00;;;10.00;99.90;;;;;;5083706;28;20209;-82
2023/02/18 05:38:06;;;;;;;3.97;3.67;;;10.00;99.90;;;;;;5083910;28;20210;-82
2023/02/18 05:40:33;;;;;;;2.13;1.95;;;10.00;99.90;;;;;;5083943;28;20198;-82
2023/02/18 05:43:00;;;;;;;0.82;0.77;;;10.00;99.90;;;;;;5084147;28;20196;-82
2023/02/18 05:45:27;;;;;;;3.78;2.55;;;10.00;99.90;;;;;;5083250;28;20223;-80
2023/02/18 05:47:54;;;;;;;7.72;1.85;;;10.00;99.90;;;;;;5083710;28;20228;-81
2023/02/18 05:50:20;;;;;;;4.50;2.90;;;10.00;99.90;;;;;;5083633;28;20261;-79
2023/02/18 05:52:47;;;;;;;5.90;3.22;;;10.00;99.90;;;;;;5084054;28;20214;-81
2023/02/18 05:55:16;;;;;;;1.52;0.90;;;10.00;99.90;;;;;;5083415;28;20190;-81
2023/02/18 05:57:42;;;;;;;5.38;4.88;;;10.00;99.90;;;;;;5074919;28;20224;-83
2023/02/18 06:00:10;;;;;;;4.50;4.10;;;10.00;99.90;;;;;;5083702;28;20190;-82
2023/02/18 06:02:37;;;;;;;8.32;6.88;;;10.00;99.90;;;;;;5082432;28;20186;-82
2023/02/18 06:05:05;;;;;;;7.30;6.03;;;10.00;99.90;;;;;;5083020;28;20289;-81
2023/02/18 06:07:32;;;;;;;6.38;2.83;;;10.00;99.90;;;;;;5082240;28;20206;-81
2023/02/18 06:09:58;;;;;;;3.13;2.75;;;10.00;99.90;;;;;;5081716;28;20186;-82
2023/02/18 06:12:27;;;;;;;6.00;4.85;;;10.00;99.90;;;;;;5082125;28;20221;-81
2023/02/18 06:14:53;;;;;;;2.13;1.92;;;10.00;99.90;;;;;;5081703;28;20645;-82
2023/02/18 06:17:21;;;;;;;6.20;4.75;;;10.00;99.90;;;;;;5082198;28;20218;-81
2023/02/18 06:19:48;;;;;;;4.45;4.18;;;10.00;99.90;;;;;;5081988;28;20224;-82
2023/02/18 06:22:15;;;;;;;1.70;1.60;;;10.00;99.90;;;;;;5082192;28;20193;-82
2023/02/18 06:24:42;;;;;;;5.18;4.50;;;10.00;99.90;;;;;;5074044;28;20190;-81
2023/02/18 06:27:09;;;;;;;3.08;2.40;;;10.00;99.90;;;;;;5082321;28;20209;-82
2023/02/18 06:29:37;;;;;;;4.53;3.78;;;10.00;99.90;;;;;;5081696;28;20213;-82
2023/02/18 06:32:04;;;;;;;2.92;2.17;;;10.00;99.90;;;;;;5082913;28;20204;-82
2023/02/18 06:34:31;;;;;;;6.22;2.22;;;10.00;99.90;;;;;;5082705;28;20194;-81
2023/02/18 06:36:57;;;;;;;5.05;4.57;;;10.00;99.90;;;;;;5081575;28;20225;-82
2023/02/18 06:39:24;;;;;;;1.88;0.75;;;10.00;99.90;;;;;;5082049;28;20194;-81
2023/02/18 06:41:51;;;;;;;4.13;3.83;;;10.00;99.90;;;;;;5083730;28;20190;-81
2023/02/18 06:44:18;;;;;;;3.10;2.80;;;10.00;99.90;;;;;;5086629;28;20200;-82
2023/02/18 06:46:46;;;;;;;2.72;2.30;;;10.00;99.90;;;;;;5088620;28;20221;-82
2023/02/18 06:49:13;;;;;;;15.70;5.15;;;9.90;99.90;;;;;;5088728;28;20326;-82
2023/02/18 06:51:40;;;;;;;3.17;2.58;;;9.90;99.90;;;;;;5086091;28;20573;-82
2023/02/18 06:54:06;;;;;;;3.35;2.00;;;10.00;99.90;;;;;;5087798;28;20606;-83
2023/02/18 06:56:33;;;;;;;0.85;0.85;;;9.90;99.90;;;;;;5087450;28;20204;-82
2023/02/18 06:59:00;;;;;;;2.53;1.77;;;9.90;99.90;;;;;;5088374;28;20221;-83
2023/02/18 07:01:26;;;;;;;3.33;2.28;;;9.90;99.90;;;;;;5088160;28;20208;-84
2023/02/18 07:03:55;;;;;;;3.63;2.22;;;9.90;99.90;;;;;;5088070;28;20186;-82
2023/02/18 07:06:21;;;;;;;1.63;1.52;;;9.90;99.90;;;;;;5087922;28;20285;-83
2023/02/18 07:08:48;;;;;;;2.05;1.67;;;9.90;99.90;;;;;;5089110;28;20186;-84
2023/02/18 07:11:15;;;;;;;3.20;2.67;;;9.90;99.90;;;;;;5088400;28;20201;-83
2023/02/18 07:13:42;;;;;;;2.47;2.25;;;9.90;99.90;;;;;;5088670;28;20193;-82
2023/02/18 07:16:09;;;;;;;3.80;1.67;;;9.80;99.90;;;;;;5087933;28;20258;-82
2023/02/18 07:18:36;;;;;;;3.05;1.58;;;9.80;99.90;;;;;;5087978;28;20224;-84
2023/02/18 07:21:04;;;;;;;6.88;3.10;;;9.80;99.90;;;;;;5092461;28;20200;-84
2023/02/18 07:23:31;;;;;;;1.50;1.40;;;9.80;99.90;;;;;;5093963;28;20685;-84
2023/02/18 07:26:04;;;;;;;1.48;1.38;;;9.90;99.90;;;;;;5092353;28;20186;-84
2023/02/18 07:28:31;;;;;;;4.40;3.38;;;9.90;99.90;;;;;;5091813;28;20648;-83
2023/02/18 07:30:58;;;;;;;0.75;0.65;;;9.90;99.90;;;;;;5093046;28;20190;-83
2023/02/18 07:33:25;;;;;;;0.60;0.52;;;9.90;99.90;;;;;;5092204;28;20189;-85
2023/02/18 07:35:54;;;;;;;2.33;2.13;;;9.90;99.90;;;;;;5092456;28;20285;-81
2023/02/18 07:38:23;;;;;;;1.98;1.17;;;9.80;99.90;;;;;;5092022;28;20214;-81
2023/02/18 07:40:50;;;;;;;0.93;0.90;;;9.90;99.90;;;;;;5084661;28;20189;-83
2023/02/18 07:43:17;;;;;;;2.72;2.17;;;9.90;99.90;;;;;;5091932;28;20194;-84
2023/02/18 07:45:44;;;;;;;2.20;1.17;;;9.90;99.90;;;;;;5091951;28;20222;-83
2023/02/18 07:48:11;;;;;;;1.00;0.90;;;9.90;99.90;;;;;;5091274;28;20209;-83
2023/02/18 07:50:40;;;;;;;1.90;0.85;;;9.90;99.90;;;;;;5091934;28;20261;-84
2023/02/18 07:53:07;;;;;;;1.70;1.17;;;9.90;99.90;;;;;;5091915;28;20221;-84
2023/02/18 07:55:51;;;;;;;0.50;0.40;;;9.90;99.90;;;;;;5091231;28;20660;-83
2023/02/18 07:58:19;;;;;;;0.50;0.40;;;9.90;99.90;;;;;;5093242;28;20237;-83
2023/02/18 08:00:48;;;;;;;0.65;0.65;;;10.00;99.90;;;;;;5093101;28;20190;-85
2023/02/18 08:03:15;;;;;;;0.60;0.50;;;10.00;99.90;;;;;;5092357;28;20337;-83
2023/02/18 08:05:42;;;;;;;0.50;0.40;;;10.00;99.90;;;;;;5092324;28;20196;-83
2023/02/18 08:08:12;;;;;;;1.40;1.30;;;10.00;99.90;;;;;;5092850;28;20680;-84
2023/02/18 08:10:41;;;;;;;0.60;0.50;;;10.10;99.90;;;;;;5092948;28;20197;-83
2023/02/18 08:13:07;;;;;;;1.60;1.50;;;10.10;99.90;;;;;;5093005;28;20186;-83
2023/02/18 08:15:34;;;;;;;1.98;0.98;;;10.00;99.90;;;;;;5092529;28;20204;-83
2023/02/18 08:18:01;;;;;;;1.73;1.63;;;10.00;99.90;;;;;;5092472;28;20213;-84
2023/02/18 08:20:28;;;;;;;2.30;1.38;;;10.00;99.90;;;;;;5092821;28;20288;-81
2023/02/18 08:22:55;;;;;;;1.98;1.30;;;9.90;99.90;;;;;;5092583;28;20458;-83
2023/02/18 08:25:22;;;;;;;0.98;0.70;;;9.90;99.90;;;;;;5091965;28;20190;-84
2023/02/18 08:27:50;;;;;;;1.23;0.93;;;9.90;99.90;;;;;;5084015;28;20217;-83
2023/02/18 08:30:17;;;;;;;1.15;0.50;;;9.90;99.90;;;;;;5092880;28;20200;-84
2023/02/18 08:32:44;;;;;;;2.67;1.08;;;10.00;99.90;;;;;;5088140;28;20675;-83
2023/02/18 08:35:13;;;;;;;0.50;0.40;;;10.00;99.90;;;;;;5089081;28;20190;-84
2023/02/18 08:37:40;;;;;;;3.00;0.88;;;10.00;99.90;;;;;;5088985;28;20318;-84
2023/02/18 08:40:08;;;;;;;0.50;0.45;;;10.00;99.90;;;;;;5088928;28;20190;-83
2023/02/18 08:42:35;;;;;;;0.90;0.60;;;10.00;99.90;;;;;;5089094;28;20276;-84
2023/02/18 08:45:03;;;;;;;0.70;0.70;;;10.00;99.90;;;;;;5088144;28;20276;-85
2023/02/18 08:47:30;;;;;;;0.75;0.75;;;10.00;99.90;;;;;;5088550;28;20281;-83
2023/02/18 08:49:57;;;;;;;2.13;1.92;;;9.90;99.90;;;;;;5089022;28;20188;-84
2023/02/18 08:52:24;;;;;;;0.90;0.90;;;9.80;99.90;;;;;;5088714;28;20197;-84
2023/02/18 08:54:52;;;;;;;1.70;1.65;;;9.80;99.90;;;;;;5088844;28;20194;-84
2023/02/18 08:57:18;;;;;;;1.88;1.77;;;9.80;99.90;;;;;;5088892;28;20289;-81
2023/02/18 08:59:45;;;;;;;2.15;1.63;;;9.70;99.90;;;;;;5088445;28;20218;-83
2023/02/18 09:02:14;;;;;;;1.30;1.20;;;9.70;99.90;;;;;;5088972;28;20186;-83
2023/02/18 09:04:41;;;;;;;5.95;1.33;;;9.70;99.90;;;;;;5089221;28;20198;-82
2023/02/18 09:07:08;;;;;;;0.52;0.40;;;9.60;99.90;;;;;;5088606;28;20282;-84
2023/02/18 09:09:34;;;;;;;1.50;1.40;;;9.60;99.90;;;;;;5089063;28;20755;-84
2023/02/18 09:12:01;;;;;;;4.90;1.08;;;9.60;99.90;;;;;;5089052;28;20190;-84
2023/02/18 09:14:28;;;;;;;9.43;1.08;;;9.60;99.90;;;;;;5087901;28;20194;-80
2023/02/18 09:16:57;;;;;;;1.15;1.05;;;9.70;99.90;;;;;;5088157;28;20230;-84
2023/02/18 09:19:25;;;;;;;1.95;1.25;;;9.60;99.90;;;;;;5088475;28;20214;-81
2023/02/18 09:21:52;;;;;;;4.20;2.05;;;9.60;99.90;;;;;;5087604;28;20216;-85
2023/02/18 09:24:19;;;;;;;0.98;0.98;;;9.60;99.90;;;;;;5087972;28;20221;-84
2023/02/18 09:26:46;;;;;;;1.30;1.13;;;9.60;99.90;;;;;;5087073;28;20214;-83
2023/02/18 09:29:13;;;;;;;2.90;2.03;;;9.70;99.90;;;;;;5087657;28;20182;-83
2023/02/18 09:31:39;;;;;;;5.55;3.00;;;9.60;99.90;;;;;;5087626;28;20222;-83
2023/02/18 09:34:06;;;;;;;1.58;1.48;;;9.70;99.90;;;;;;5088050;28;20190;-83
2023/02/18 09:36:34;;;;;;;2.25;2.10;;;9.70;99.90;;;;;;5087166;28;20292;-83
2023/02/18 09:39:01;;;;;;;1.52;1.42;;;9.70;99.90;;;;;;5087722;28;20639;-83
2023/02/18 09:41:37;;;;;;;1.88;1.77;;;9.70;99.90;;;;;;5087437;28;20213;-83
2023/02/18 09:44:10;;;;;;;2.90;1.33;;;9.70;99.90;;;;;;5080044;28;20200;-82
2023/02/18 09:46:40;;;;;;;0.50;0.40;;;9.70;99.90;;;;;;5086347;28;20228;-84
2023/02/18 09:49:14;;;;;;;8.40;1.25;;;9.70;99.90;;;;;;5086947;28;20182;-83
2023/02/18 09:51:42;;;;;;;7.75;1.35;;;9.70;99.90;;;;;;5086286;28;20217;-84
2023/02/18 09:54:11;;;;;;;0.60;0.50;;;9.70;99.90;;;;;;5086798;28;20257;-84
2023/02/18 09:56:39;;;;;;;0.57;0.47;;;9.80;99.90;;;;;;5087155;28;20216;-83
2023/02/18 09:59:13;;;;;;;2.70;1.58;;;9.80;99.90;;;;;;5088831;28;20194;-82
2023/02/18 10:01:41;;;;;;;1.85;1.75;;;9.90;99.90;;;;;;5088427;28;20204;-84
2023/02/18 10:04:15;;;;;;;0.50;0.50;;;9.90;99.90;;;;;;5088866;28;20198;-84
2023/02/18 10:06:45;;;;;;;6.57;2.03;;;9.90;99.90;;;;;;5087140;28;20215;-83
2023/02/18 10:09:19;;;;;;;0.88;0.63;;;9.90;99.90;;;;;;5085824;28;20190;-83
2023/02/18 10:11:50;;;;;;;2.55;0.98;;;10.00;99.90;;;;;;5087852;28;20244;-82
2023/02/18 10:14:18;;;;;;;1.15;1.05;;;9.90;99.90;;;;;;5088994;28;20285;-81
2023/02/18 10:16:46;;;;;;;1.40;0.80;;;9.90;99.90;;;;;;5088381;28;20240;-83
2023/02/18 10:19:22;;;;;;;3.15;2.22;;;9.90;99.90;;;;;;5088151;28;20273;-82
2023/02/18 10:21:52;;;;;;;4.53;1.83;;;9.90;99.90;;;;;;5088320;28;20189;-82
2023/02/18 10:24:27;;;;;;;1.77;0.80;;;9.80;99.90;;;;;;5087127;28;20198;-82
2023/02/18 10:26:55;;;;;;;2.03;0.98;;;9.80;99.90;;;;;;5088539;28;20214;-82
2023/02/18 10:29:23;;;;;;;1.20;1.10;;;9.70;99.90;;;;;;5087117;28;20193;-80
2023/02/18 10:31:55;;;;;;;5.05;1.70;;;9.70;99.90;;;;;;5086480;28;20213;-83
2023/02/18 10:34:30;;;;;;;2.70;1.13;;;9.70;99.90;;;;;;5089087;28;20193;-83
2023/02/18 10:37:08;;;;;;;1.67;1.58;;;9.70;99.90;;;;;;5079494;28;20244;-82
2023/02/18 10:39:53;;;;;;;0.50;0.50;;;9.70;99.90;;;;;;5088288;28;20308;-82
2023/02/18 10:42:32;;;;;;;3.58;1.45;;;9.70;99.90;;;;;;5089114;28;20185;-83
2023/02/18 10:45:11;;;;;;;1.45;1.35;;;9.60;99.90;;;;;;5088740;28;20201;-82
2023/02/18 10:47:42;;;;;;;1.10;0.80;;;9.60;99.90;;;;;;5086707;28;20280;-83
2023/02/18 10:50:12;;;;;;;1.25;1.00;;;9.50;99.90;;;;;;5089189;28;20202;-82
2023/02/18 10:52:42;;;;;;;5.25;1.38;;;9.40;99.90;;;;;;5088699;28;20633;-82
2023/02/18 10:55:14;;;;;;;0.77;0.68;;;9.40;99.90;;;;;;5087420;28;20202;-82
2023/02/18 10:57:49;;;;;;;1.20;1.10;;;9.40;99.90;;;;;;5088139;28;20221;-85
2023/02/18 11:00:22;;;;;;;2.33;1.55;;;9.30;99.90;;;;;;5116607;22;20229;-80
2023/02/18 11:03:03;;;;;;;0.70;0.50;;;9.30;99.90;;;;;;5069573;28;20198;-80
2023/02/18 11:05:35;;;;;;;1.35;1.35;;;9.20;99.90;;;;;;5068740;28;20543;-80
2023/02/18 11:08:07;;;;;;;0.50;0.40;;;9.20;99.90;;;;;;5060864;28;20194;-80
2023/02/18 11:10:38;;;;;;;1.50;1.40;;;9.20;99.90;;;;;;5061310;28;20225;-80
2023/02/18 11:13:08;;;;;;;0.93;0.93;;;9.20;99.90;;;;;;5069619;28;20209;-80
2023/02/18 11:15:35;;;;;;;11.43;3.20;;;9.20;99.90;;;;;;5069182;28;20206;-80
2023/02/18 11:18:13;;;;;;;5.85;1.90;;;9.20;99.90;;;;;;5063757;28;20562;-80
2023/02/18 11:20:40;;;;;;;1.10;0.90;;;9.30;99.90;;;;;;5066314;28;20601;-80
2023/02/18 11:23:20;;;;;;;0.60;0.60;;;9.20;99.90;;;;;;5063735;28;20206;-80
2023/02/18 11:25:56;;;;;;;3.45;2.00;;;9.20;99.90;;;;;;5060141;28;20210;-80
2023/02/18 11:28:40;;;;;;;4.65;1.20;;;9.20;99.90;;;;;;5068784;28;20189;-80
2023/02/18 11:31:08;;;;;;;2.70;1.65;;;9.20;99.90;;;;;;5062884;28;20202;-80
2023/02/18 11:33:39;;;;;;;1.83;1.73;;;9.30;99.90;;;;;;5069229;28;20220;-80
2023/02/18 11:36:17;;;;;;;1.95;1.75;;;9.30;99.90;;;;;;5054785;28;20190;-81
2023/02/18 11:38:48;;;;;;;1.75;1.65;;;9.30;99.90;;;;;;5077821;28;20217;-81
2023/02/18 11:41:18;;;;;;;1.63;1.52;;;9.30;99.90;;;;;;5068125;28;20203;-80
2023/02/18 11:43:48;;;;;;;4.70;3.08;;;9.30;99.90;;;;;;5067626;28;20202;-80
2023/02/18 11:46:17;;;;;;;1.08;0.95;;;9.20;99.90;;;;;;5070985;28;20261;-80
2023/02/18 11:48:44;;;;;;;0.50;0.40;;;9.30;99.90;;;;;;5061478;28;20241;-79
2023/02/18 11:51:17;;;;;;;1.95;0.70;;;9.30;99.90;;;;;;5073211;28;20195;-77
2023/02/18 11:53:58;;;;;;;2.67;1.95;;;9.30;99.90;;;;;;5063979;28;20225;-80
2023/02/18 11:56:27;;;;;;;5.32;2.05;;;9.30;99.90;;;;;;5066396;28;20258;-79
2023/02/18 11:58:54;;;;;;;1.55;1.45;;;9.30;99.90;;;;;;5069125;28;20280;-80
2023/02/18 12:01:31;;;;;;;0.65;0.63;;;9.30;99.90;;;;;;5071051;28;20208;-81
2023/02/18 12:04:04;;;;;;;4.47;2.00;;;9.30;99.90;;;;;;5066090;28;20191;-81
2023/02/18 12:06:34;;;;;;;1.80;1.55;;;9.30;99.90;;;;;;5076319;28;20194;-79
2023/02/18 12:09:06;;;;;;;2.40;2.25;;;9.30;99.90;;;;;;5071998;28;20218;-81
2023/02/18 12:11:38;;;;;;;0.50;0.40;;;9.30;99.90;;;;;;5062491;28;20199;-79
2023/02/18 12:14:13;;;;;;;1.27;1.08;;;9.30;99.90;;;;;;5065761;28;20190;-80
2023/02/18 12:16:54;;;;;;;1.42;1.33;;;9.40;99.90;;;;;;5067264;28;20297;-82
2023/02/18 12:19:47;;;;;;;0.93;0.73;;;9.40;99.90;;;;;;5079152;28;20218;-80
2023/02/18 12:22:21;;;;;;;3.15;2.70;;;9.40;99.90;;;;;;5064826;28;20191;-79
2023/02/18 12:25:10;;;;;;;3.67;3.38;;;9.40;99.90;;;;;;5067590;28;20230;-81
2023/02/18 12:27:43;;;;;;;2.53;2.03;;;9.40;99.90;;;;;;5071766;28;20205;-78
2023/02/18 12:30:45;;;;;;;1.90;1.60;;;9.40;99.90;;;;;;5052169;28;20207;-79
2023/02/18 12:33:22;;;;;;;0.52;0.52;;;9.40;99.90;;;;;;5062522;28;20537;-78
2023/02/18 12:36:04;;;;;;;3.45;3.05;;;9.50;99.90;;;;;;5066164;28;20201;-79
2023/02/18 12:38:53;;;;;;;6.20;3.53;;;9.60;99.90;;;;;;5077737;28;20198;-80
2023/02/18 12:41:34;;;;;;;1.25;0.73;;;9.50;99.90;;;;;;5059794;28;20195;-80
2023/02/18 12:44:07;;;;;;;1.40;1.05;;;9.50;99.90;;;;;;5069063;28;20193;-80
2023/02/18 12:46:48;;;;;;;1.40;1.30;;;9.50;99.90;;;;;;5064354;28;20211;-79
2023/02/18 12:49:30;;;;;;;5.07;4.47;;;9.50;99.90;;;;;;5054264;28;20233;-81
2023/02/18 12:52:15;;;;;;;0.77;0.77;;;9.60;99.90;;;;;;5065251;28;20198;-78
2023/02/18 12:55:15;;;;;;;2.10;1.23;;;9.60;99.90;;;;;;5068937;28;20248;-79
2023/02/18 12:57:52;;;;;;;2.95;1.42;;;9.60;99.90;;;;;;5062352;28;20203;-80
2023/02/18 13:01:03;;;;;;;0.70;0.65;;;9.60;99.90;;;;;;5074779;28;20217;-77
2023/02/18 13:04:03;;;;;;;1.73;1.63;;;9.60;99.90;;;;;;5024621;28;20284;-79
2023/02/18 13:06:45;;;;;;;7.88;7.07;;;9.60;99.90;;;;;;5067985;28;20198;-77
2023/02/18 13:09:20;;;;;;;3.88;2.45;;;9.60;99.90;;;;;;5053320;28;20228;-77